createdAt,value
2019-02-20T00:00:30.488Z,1012.16
2019-02-20T00:01:30.470Z,1012.19
2019-02-20T00:02:30.451Z,1012.13
2019-02-20T00:03:30.439Z,1012.13
2019-02-20T00:04:30.408Z,1012.09
2019-02-20T00:05:30.391Z,1012.12
2019-02-20T00:06:30.371Z,1012.08
2019-02-20T00:07:30.418Z,1012.1
2019-02-20T00:08:30.335Z,1012.09
2019-02-20T00:09:30.312Z,1012.08
2019-02-20T00:10:30.294Z,1012.1
2019-02-20T00:11:30.278Z,1012.11
2019-02-20T00:12:30.257Z,1012.14
2019-02-20T00:13:30.257Z,1012.19
2019-02-20T00:14:30.216Z,1012.19
2019-02-20T00:15:30.197Z,1012.15
2019-02-20T00:16:30.177Z,1012.16
2019-02-20T00:17:30.155Z,1012.15
2019-02-20T00:18:30.138Z,1012.16
2019-02-20T00:19:30.119Z,1012.15
2019-02-20T00:20:30.099Z,1012.18
2019-02-20T00:21:30.079Z,1012.2
2019-02-20T00:22:30.060Z,1012.19
2019-02-20T00:23:30.057Z,1012.22
2019-02-20T00:24:30.020Z,1012.23
2019-02-20T00:25:30.002Z,1012.24
2019-02-20T00:26:29.982Z,1012.22
2019-02-20T00:27:29.967Z,1012.21
2019-02-20T00:28:29.944Z,1012.24
2019-02-20T00:29:29.923Z,1012.24
2019-02-20T00:30:29.935Z,1012.25
2019-02-20T00:31:29.893Z,1012.28
2019-02-20T00:32:29.867Z,1012.27
2019-02-20T00:33:29.847Z,1012.28
2019-02-20T00:34:29.827Z,1012.32
2019-02-20T00:35:29.809Z,1012.32
2019-02-20T00:36:29.788Z,1012.31
2019-02-20T00:37:29.773Z,1012.34
2019-02-20T00:38:29.778Z,1012.34
2019-02-20T00:39:29.728Z,1012.34
2019-02-20T00:40:29.708Z,1012.3
2019-02-20T00:41:29.690Z,1012.32
2019-02-20T00:42:29.671Z,1012.29
2019-02-20T00:43:29.650Z,1012.3
2019-02-20T00:44:29.632Z,1012.35
2019-02-20T00:45:29.614Z,1012.34
2019-02-20T00:46:29.591Z,1012.34
2019-02-20T00:47:29.573Z,1012.33
2019-02-20T00:48:29.559Z,1012.3
2019-02-20T00:49:29.536Z,1012.29
2019-02-20T00:50:29.511Z,1012.29
2019-02-20T00:51:29.493Z,1012.31
2019-02-20T00:52:29.482Z,1012.23
2019-02-20T00:53:29.453Z,1012.3
2019-02-20T00:54:29.433Z,1012.28
2019-02-20T00:55:29.418Z,1012.26
2019-02-20T00:56:29.398Z,1012.31
2019-02-20T00:57:29.377Z,1012.27
2019-02-20T00:58:29.357Z,1012.27
2019-02-20T00:59:29.336Z,1012.25
2019-02-20T01:00:29.317Z,1012.31
2019-02-20T01:01:29.294Z,1012.25
2019-02-20T01:02:29.275Z,1012.3
2019-02-20T01:03:29.261Z,1012.28
2019-02-20T01:04:29.234Z,1012.28
2019-02-20T01:05:29.214Z,1012.25
2019-02-20T01:06:29.195Z,1012.25
2019-02-20T01:07:29.179Z,1012.26
2019-02-20T01:08:29.198Z,1012.22
2019-02-20T01:09:29.145Z,1012.23
2019-02-20T01:10:29.118Z,1012.2
2019-02-20T01:11:29.102Z,1012.18
2019-02-20T01:12:29.077Z,1012.23
2019-02-20T01:13:29.056Z,1012.21
2019-02-20T01:14:29.038Z,1012.26
2019-02-20T01:15:29.016Z,1012.28
2019-02-20T01:16:29.010Z,1012.3
2019-02-20T01:17:28.976Z,1012.31
2019-02-20T01:18:28.959Z,1012.32
2019-02-20T01:19:28.936Z,1012.35
2019-02-20T01:20:28.916Z,1012.39
2019-02-20T01:21:28.896Z,1012.39
2019-02-20T01:22:28.877Z,1012.38
2019-02-20T01:23:28.858Z,1012.38
2019-02-20T01:24:29.142Z,1012.39
2019-02-20T01:25:28.821Z,1012.41
2019-02-20T01:26:28.796Z,1012.41
2019-02-20T01:27:28.777Z,1012.41
2019-02-20T01:28:28.756Z,1012.38
2019-02-20T01:29:28.737Z,1012.4
2019-02-20T01:30:28.722Z,1012.43
2019-02-20T01:31:28.721Z,1012.41
2019-02-20T01:32:28.680Z,1012.42
2019-02-20T01:33:28.663Z,1012.41
2019-02-20T01:34:28.643Z,1012.43
2019-02-20T01:35:28.618Z,1012.39
2019-02-20T01:36:28.602Z,1012.41
2019-02-20T01:37:28.580Z,1012.39
2019-02-20T01:38:28.563Z,1012.38
2019-02-20T01:39:28.750Z,1012.34
2019-02-20T01:40:28.521Z,1012.33
2019-02-20T01:41:28.501Z,1012.34
2019-02-20T01:42:28.488Z,1012.3
2019-02-20T01:43:28.462Z,1012.29
2019-02-20T01:44:28.442Z,1012.32
2019-02-20T01:45:28.422Z,1012.29
2019-02-20T01:46:28.409Z,1012.33
2019-02-20T01:47:28.388Z,1012.31
2019-02-20T01:48:28.374Z,1012.29
2019-02-20T01:49:28.342Z,1012.27
2019-02-20T01:50:28.325Z,1012.3
2019-02-20T01:51:28.304Z,1012.31
2019-02-20T01:52:28.287Z,1012.27
2019-02-20T01:53:28.263Z,1012.28
2019-02-20T01:54:28.243Z,1012.26
2019-02-20T01:55:28.236Z,1012.28
2019-02-20T01:56:28.213Z,1012.27
2019-02-20T01:57:28.188Z,1012.3
2019-02-20T01:58:28.171Z,1012.29
2019-02-20T01:59:28.157Z,1012.29
2019-02-20T02:00:28.130Z,1012.34
2019-02-20T02:01:28.107Z,1012.32
2019-02-20T02:02:28.101Z,1012.31
2019-02-20T02:03:28.067Z,1012.32
2019-02-20T02:04:28.046Z,1012.32
2019-02-20T02:05:28.027Z,1012.29
2019-02-20T02:06:28.014Z,1012.27
2019-02-20T02:07:27.990Z,1012.24
2019-02-20T02:08:27.971Z,1012.27
2019-02-20T02:09:27.954Z,1012.26
2019-02-20T02:10:27.932Z,1012.29
2019-02-20T02:11:27.909Z,1012.31
2019-02-20T02:12:27.891Z,1012.29
2019-02-20T02:13:27.870Z,1012.26
2019-02-20T02:14:27.852Z,1012.31
2019-02-20T02:15:27.832Z,1012.35
2019-02-20T02:16:27.819Z,1012.31
2019-02-20T02:17:27.792Z,1012.32
2019-02-20T02:18:27.773Z,1012.35
2019-02-20T02:19:27.753Z,1012.34
2019-02-20T02:20:27.740Z,1012.36
2019-02-20T02:21:27.714Z,1012.32
2019-02-20T02:22:27.695Z,1012.34
2019-02-20T02:23:27.699Z,1012.36
2019-02-20T02:24:27.656Z,1012.33
2019-02-20T02:25:27.685Z,1012.31
2019-02-20T02:26:27.620Z,1012.32
2019-02-20T02:27:27.604Z,1012.33
2019-02-20T02:28:27.577Z,1012.35
2019-02-20T02:29:27.558Z,1012.37
2019-02-20T02:30:27.639Z,1012.35
2019-02-20T02:31:27.516Z,1012.35
2019-02-20T02:32:27.499Z,1012.33
2019-02-20T02:33:27.479Z,1012.32
2019-02-20T02:34:27.460Z,1012.31
2019-02-20T02:35:27.440Z,1012.29
2019-02-20T02:36:27.418Z,1012.34
2019-02-20T02:37:27.401Z,1012.25
2019-02-20T02:38:27.389Z,1012.27
2019-02-20T02:39:27.361Z,1012.28
2019-02-20T02:40:27.353Z,1012.25
2019-02-20T02:41:27.323Z,1012.21
2019-02-20T02:42:27.302Z,1012.24
2019-02-20T02:43:27.284Z,1012.19
2019-02-20T02:44:27.262Z,1012.24
2019-02-20T02:45:27.247Z,1012.21
2019-02-20T02:46:27.224Z,1012.19
2019-02-20T02:47:27.225Z,1012.17
2019-02-20T02:48:27.186Z,1012.21
2019-02-20T02:49:27.166Z,1012.22
2019-02-20T02:50:27.278Z,1012.2
2019-02-20T02:51:27.133Z,1012.22
2019-02-20T02:52:27.108Z,1012.21
2019-02-20T02:53:30.551Z,1012.18
2019-02-20T02:54:27.123Z,1012.14
2019-02-20T02:55:27.050Z,1012.18
2019-02-20T02:56:27.028Z,1012.2
2019-02-20T02:57:27.008Z,1012.2
2019-02-20T02:58:26.986Z,1012.2
2019-02-20T02:59:26.967Z,1012.15
2019-02-20T03:00:26.970Z,1012.2
2019-02-20T03:01:26.953Z,1012.18
2019-02-20T03:02:26.909Z,1012.21
2019-02-20T03:03:26.893Z,1012.16
2019-02-20T03:04:26.878Z,1012.17
2019-02-20T03:05:26.863Z,1012.15
2019-02-20T03:06:26.854Z,1012.19
2019-02-20T03:07:26.821Z,1012.15
2019-02-20T03:08:26.798Z,1012.12
2019-02-20T03:09:26.772Z,1012.15
2019-02-20T03:10:26.754Z,1012.14
2019-02-20T03:11:26.733Z,1012.15
2019-02-20T03:12:26.714Z,1012.14
2019-02-20T03:13:26.697Z,1012.12
2019-02-20T03:14:26.678Z,1012.14
2019-02-20T03:15:26.658Z,1012.14
2019-02-20T03:16:26.636Z,1012.17
2019-02-20T03:17:26.617Z,1012.17
2019-02-20T03:18:26.596Z,1012.2
2019-02-20T03:19:26.578Z,1012.22
2019-02-20T03:20:26.558Z,1012.2
2019-02-20T03:21:26.539Z,1012.22
2019-02-20T03:22:26.518Z,1012.21
2019-02-20T03:23:26.498Z,1012.2
2019-02-20T03:24:26.481Z,1012.21
2019-02-20T03:25:26.461Z,1012.22
2019-02-20T03:26:26.446Z,1012.23
2019-02-20T03:27:26.429Z,1012.22
2019-02-20T03:28:26.406Z,1012.2
2019-02-20T03:29:26.387Z,1012.23
2019-02-20T03:30:26.365Z,1012.22
2019-02-20T03:31:26.345Z,1012.21
2019-02-20T03:32:26.324Z,1012.17
2019-02-20T03:33:26.303Z,1012.19
2019-02-20T03:34:26.283Z,1012.21
2019-02-20T03:35:26.266Z,1012.2
2019-02-20T03:36:26.247Z,1012.23
2019-02-20T03:37:26.225Z,1012.19
2019-02-20T03:38:30.204Z,1012.2
2019-02-20T03:39:26.388Z,1012.2
2019-02-20T03:40:26.170Z,1012.19
2019-02-20T03:41:26.149Z,1012.18
2019-02-20T03:42:26.128Z,1012.18
2019-02-20T03:43:26.109Z,1012.18
2019-02-20T03:44:26.090Z,1012.19
2019-02-20T03:45:26.075Z,1012.18
2019-02-20T03:46:26.053Z,1012.19
2019-02-20T03:47:26.035Z,1012.21
2019-02-20T03:48:26.020Z,1012.16
2019-02-20T03:49:25.992Z,1012.15
2019-02-20T03:50:25.994Z,1012.14
2019-02-20T03:51:25.952Z,1012.17
2019-02-20T03:52:25.935Z,1012.21
2019-02-20T03:53:25.918Z,1012.23
2019-02-20T03:54:25.897Z,1012.21
2019-02-20T03:55:25.878Z,1012.23
2019-02-20T03:56:25.854Z,1012.24
2019-02-20T03:57:25.836Z,1012.23
2019-02-20T03:58:25.814Z,1012.23
2019-02-20T03:59:25.796Z,1012.26
2019-02-20T04:00:25.777Z,1012.26
2019-02-20T04:01:25.759Z,1012.21
2019-02-20T04:02:25.737Z,1012.23
2019-02-20T04:03:25.717Z,1012.23
2019-02-20T04:04:25.697Z,1012.23
2019-02-20T04:05:25.687Z,1012.27
2019-02-20T04:06:25.658Z,1012.24
2019-02-20T04:07:25.909Z,1012.26
2019-02-20T04:08:25.623Z,1012.21
2019-02-20T04:09:25.612Z,1012.28
2019-02-20T04:10:25.585Z,1012.2
2019-02-20T04:11:25.558Z,1012.2
2019-02-20T04:12:25.545Z,1012.22
2019-02-20T04:13:25.522Z,1012.25
2019-02-20T04:14:25.502Z,1012.25
2019-02-20T04:15:25.483Z,1012.25
2019-02-20T04:16:25.469Z,1012.24
2019-02-20T04:17:25.481Z,1012.28
2019-02-20T04:18:25.426Z,1012.28
2019-02-20T04:19:25.406Z,1012.25
2019-02-20T04:20:25.386Z,1012.33
2019-02-20T04:21:25.366Z,1012.29
2019-02-20T04:22:25.347Z,1012.34
2019-02-20T04:23:25.361Z,1012.3
2019-02-20T04:24:25.315Z,1012.28
2019-02-20T04:25:25.286Z,1012.26
2019-02-20T04:26:25.272Z,1012.26
2019-02-20T04:27:25.251Z,1012.28
2019-02-20T04:28:25.234Z,1012.26
2019-02-20T04:29:25.211Z,1012.28
2019-02-20T04:30:25.191Z,1012.25
2019-02-20T04:31:25.176Z,1012.25
2019-02-20T04:32:25.150Z,1012.26
2019-02-20T04:33:25.130Z,1012.26
2019-02-20T04:34:25.118Z,1012.29
2019-02-20T04:35:25.090Z,1012.26
2019-02-20T04:36:25.078Z,1012.25
2019-02-20T04:37:25.055Z,1012.24
2019-02-20T04:38:25.031Z,1012.24
2019-02-20T04:39:25.014Z,1012.24
2019-02-20T04:40:24.994Z,1012.23
2019-02-20T04:41:24.976Z,1012.25
2019-02-20T04:42:24.954Z,1012.22
2019-02-20T04:43:24.938Z,1012.2
2019-02-20T04:44:24.924Z,1012.19
2019-02-20T04:45:24.899Z,1012.17
2019-02-20T04:46:24.877Z,1012.18
2019-02-20T04:47:24.857Z,1012.16
2019-02-20T04:48:24.837Z,1012.21
2019-02-20T04:49:24.822Z,1012.17
2019-02-20T04:50:24.801Z,1012.17
2019-02-20T04:51:24.778Z,1012.2
2019-02-20T04:52:24.761Z,1012.2
2019-02-20T04:53:24.741Z,1012.2
2019-02-20T04:54:24.729Z,1012.21
2019-02-20T04:55:24.701Z,1012.22
2019-02-20T04:56:24.691Z,1012.21
2019-02-20T04:57:24.662Z,1012.2
2019-02-20T04:58:24.644Z,1012.22
2019-02-20T04:59:24.625Z,1012.28
2019-02-20T05:00:24.602Z,1012.25
2019-02-20T05:01:24.586Z,1012.27
2019-02-20T05:02:24.563Z,1012.22
2019-02-20T05:03:24.546Z,1012.2
2019-02-20T05:04:24.527Z,1012.23
2019-02-20T05:05:24.507Z,1012.21
2019-02-20T05:06:24.489Z,1012.19
2019-02-20T05:07:24.466Z,1012.24
2019-02-20T05:08:24.448Z,1012.21
2019-02-20T05:09:24.427Z,1012.19
2019-02-20T05:10:24.409Z,1012.18
2019-02-20T05:11:24.391Z,1012.21
2019-02-20T05:12:24.380Z,1012.22
2019-02-20T05:13:24.365Z,1012.24
2019-02-20T05:14:24.335Z,1012.27
2019-02-20T05:15:24.318Z,1012.31
2019-02-20T05:16:24.294Z,1012.31
2019-02-20T05:17:24.272Z,1012.32
2019-02-20T05:18:24.253Z,1012.29
2019-02-20T05:19:24.236Z,1012.3
2019-02-20T05:20:24.223Z,1012.32
2019-02-20T05:21:24.196Z,1012.33
2019-02-20T05:22:24.179Z,1012.35
2019-02-20T05:23:24.159Z,1012.36
2019-02-20T05:24:25.259Z,1012.39
2019-02-20T05:25:24.121Z,1012.34
2019-02-20T05:26:24.097Z,1012.36
2019-02-20T05:27:24.079Z,1012.35
2019-02-20T05:28:24.060Z,1012.39
2019-02-20T05:29:24.038Z,1012.36
2019-02-20T05:30:24.038Z,1012.36
2019-02-20T05:31:24.000Z,1012.34
2019-02-20T05:32:23.980Z,1012.37
2019-02-20T05:33:23.959Z,1012.37
2019-02-20T05:34:23.952Z,1012.39
2019-02-20T05:35:23.921Z,1012.38
2019-02-20T05:36:23.902Z,1012.37
2019-02-20T05:37:23.886Z,1012.4
2019-02-20T05:38:23.863Z,1012.34
2019-02-20T05:39:23.843Z,1012.39
2019-02-20T05:40:23.825Z,1012.35
2019-02-20T05:41:23.805Z,1012.37
2019-02-20T05:42:23.788Z,1012.31
2019-02-20T05:43:23.766Z,1012.34
2019-02-20T05:44:23.747Z,1012.31
2019-02-20T05:45:23.725Z,1012.3
2019-02-20T05:46:23.707Z,1012.3
2019-02-20T05:47:23.687Z,1012.3
2019-02-20T05:48:23.675Z,1012.3
2019-02-20T05:49:23.647Z,1012.34
2019-02-20T05:50:23.628Z,1012.34
2019-02-20T05:51:23.612Z,1012.31
2019-02-20T05:52:23.599Z,1012.31
2019-02-20T05:53:23.572Z,1012.31
2019-02-20T05:54:23.551Z,1012.27
2019-02-20T05:55:23.531Z,1012.31
2019-02-20T05:56:23.515Z,1012.26
2019-02-20T05:57:23.504Z,1012.28
2019-02-20T05:58:23.479Z,1012.27
2019-02-20T05:59:23.457Z,1012.29
2019-02-20T06:00:23.433Z,1012.28
2019-02-20T06:01:23.461Z,1012.29
2019-02-20T06:02:23.395Z,1012.28
2019-02-20T06:03:23.373Z,1012.27
2019-02-20T06:04:23.386Z,1012.32
2019-02-20T06:05:23.334Z,1012.27
2019-02-20T06:06:23.314Z,1012.3
2019-02-20T06:07:23.306Z,1012.26
2019-02-20T06:08:23.280Z,1012.28
2019-02-20T06:09:24.719Z,1012.3
2019-02-20T06:10:23.261Z,1012.25
2019-02-20T06:11:23.223Z,1012.28
2019-02-20T06:12:23.196Z,1012.31
2019-02-20T06:13:23.181Z,1012.33
2019-02-20T06:14:23.158Z,1012.32
2019-02-20T06:15:23.144Z,1012.34
2019-02-20T06:16:23.121Z,1012.36
2019-02-20T06:17:23.102Z,1012.34
2019-02-20T06:18:23.082Z,1012.41
2019-02-20T06:19:23.060Z,1012.4
2019-02-20T06:20:23.040Z,1012.41
2019-02-20T06:21:23.023Z,1012.42
2019-02-20T06:22:23.000Z,1012.44
2019-02-20T06:23:22.978Z,1012.45
2019-02-20T06:24:22.958Z,1012.41
2019-02-20T06:25:22.966Z,1012.43
2019-02-20T06:26:22.952Z,1012.42
2019-02-20T06:27:22.947Z,1012.54
2019-02-20T06:28:22.879Z,1012.5
2019-02-20T06:29:22.871Z,1012.49
2019-02-20T06:30:22.841Z,1012.51
2019-02-20T06:31:22.819Z,1012.53
2019-02-20T06:32:24.126Z,1012.53
2019-02-20T06:33:22.780Z,1012.52
2019-02-20T06:34:22.760Z,1012.55
2019-02-20T06:35:22.739Z,1012.57
2019-02-20T06:36:22.719Z,1012.65
2019-02-20T06:37:22.713Z,1012.64
2019-02-20T06:38:22.681Z,1012.69
2019-02-20T06:39:22.660Z,1012.64
2019-02-20T06:40:22.639Z,1012.69
2019-02-20T06:41:22.620Z,1012.72
2019-02-20T06:42:22.605Z,1012.72
2019-02-20T06:43:22.584Z,1012.66
2019-02-20T06:44:22.559Z,1012.69
2019-02-20T06:45:22.547Z,1012.7
2019-02-20T06:46:22.519Z,1012.67
2019-02-20T06:47:22.502Z,1012.69
2019-02-20T06:48:22.482Z,1012.73
2019-02-20T06:49:22.461Z,1012.7
2019-02-20T06:50:22.442Z,1012.68
2019-02-20T06:51:22.419Z,1012.73
2019-02-20T06:52:22.399Z,1012.76
2019-02-20T06:53:22.382Z,1012.77
2019-02-20T06:54:22.360Z,1012.73
2019-02-20T06:55:22.342Z,1012.76
2019-02-20T06:56:22.322Z,1012.74
2019-02-20T06:57:22.302Z,1012.75
2019-02-20T06:58:22.282Z,1012.77
2019-02-20T06:59:22.261Z,1012.75
2019-02-20T07:00:22.250Z,1012.81
2019-02-20T07:01:22.272Z,1012.85
2019-02-20T07:02:22.205Z,1012.84
2019-02-20T07:03:22.181Z,1012.84
2019-02-20T07:04:22.174Z,1012.88
2019-02-20T07:05:22.140Z,1012.86
2019-02-20T07:06:22.121Z,1012.9
2019-02-20T07:07:22.099Z,1012.87
2019-02-20T07:08:22.079Z,1012.93
2019-02-20T07:09:22.064Z,1012.95
2019-02-20T07:10:22.041Z,1012.93
2019-02-20T07:11:22.020Z,1012.95
2019-02-20T07:12:21.999Z,1013
2019-02-20T07:13:21.980Z,1013.01
2019-02-20T07:14:21.961Z,1013.03
2019-02-20T07:15:21.939Z,1013.02
2019-02-20T07:16:21.920Z,1013.04
2019-02-20T07:17:21.905Z,1013.09
2019-02-20T07:18:21.886Z,1013.06
2019-02-20T07:19:21.862Z,1013.08
2019-02-20T07:20:21.926Z,1013.1
2019-02-20T07:21:21.821Z,1013.11
2019-02-20T07:22:21.801Z,1013.08
2019-02-20T07:23:21.784Z,1013.11
2019-02-20T07:24:21.771Z,1013.14
2019-02-20T07:25:21.745Z,1013.12
2019-02-20T07:26:21.723Z,1013.11
2019-02-20T07:27:21.703Z,1013.14
2019-02-20T07:28:21.691Z,1013.14
2019-02-20T07:29:21.664Z,1013.14
2019-02-20T07:30:21.643Z,1013.17
2019-02-20T07:31:21.632Z,1013.18
2019-02-20T07:32:21.603Z,1013.2
2019-02-20T07:33:21.583Z,1013.2
2019-02-20T07:34:21.570Z,1013.19
2019-02-20T07:35:21.550Z,1013.21
2019-02-20T07:36:21.527Z,1013.21
2019-02-20T07:37:21.530Z,1013.21
2019-02-20T07:38:21.512Z,1013.21
2019-02-20T07:39:21.466Z,1013.24
2019-02-20T07:40:21.447Z,1013.27
2019-02-20T07:41:21.427Z,1013.25
2019-02-20T07:42:21.409Z,1013.26
2019-02-20T07:43:21.388Z,1013.3
2019-02-20T07:44:21.371Z,1013.3
2019-02-20T07:45:21.349Z,1013.28
2019-02-20T07:46:21.332Z,1013.3
2019-02-20T07:47:21.310Z,1013.3
2019-02-20T07:48:21.298Z,1013.35
2019-02-20T07:49:21.271Z,1013.42
2019-02-20T07:50:21.304Z,1013.4
2019-02-20T07:51:21.232Z,1013.45
2019-02-20T07:52:21.213Z,1013.46
2019-02-20T07:53:21.200Z,1013.45
2019-02-20T07:54:21.174Z,1013.46
2019-02-20T07:55:21.179Z,1013.51
2019-02-20T07:56:21.135Z,1013.55
2019-02-20T07:57:21.116Z,1013.55
2019-02-20T07:58:21.098Z,1013.54
2019-02-20T07:59:21.079Z,1013.54
2019-02-20T08:00:21.058Z,1013.58
2019-02-20T08:01:21.043Z,1013.59
2019-02-20T08:02:21.021Z,1013.6
2019-02-20T08:03:21.002Z,1013.61
2019-02-20T08:04:20.982Z,1013.61
2019-02-20T08:05:20.977Z,1013.65
2019-02-20T08:06:20.945Z,1013.62
2019-02-20T08:07:20.933Z,1013.71
2019-02-20T08:08:20.915Z,1013.66
2019-02-20T08:09:20.888Z,1013.72
2019-02-20T08:10:20.868Z,1013.72
2019-02-20T08:11:20.860Z,1013.73
2019-02-20T08:12:20.830Z,1013.73
2019-02-20T08:13:20.813Z,1013.76
2019-02-20T08:14:20.794Z,1013.77
2019-02-20T08:15:20.772Z,1013.78
2019-02-20T08:16:20.754Z,1013.81
2019-02-20T08:17:20.734Z,1013.85
2019-02-20T08:18:20.718Z,1013.88
2019-02-20T08:19:21.883Z,1013.85
2019-02-20T08:20:20.683Z,1013.9
2019-02-20T08:21:20.661Z,1013.94
2019-02-20T08:22:20.642Z,1013.92
2019-02-20T08:23:20.623Z,1013.95
2019-02-20T08:24:20.606Z,1013.9
2019-02-20T08:25:22.998Z,1013.97
2019-02-20T08:26:20.571Z,1013.91
2019-02-20T08:27:20.549Z,1013.92
2019-02-20T08:28:20.540Z,1013.97
2019-02-20T08:29:20.517Z,1013.94
2019-02-20T08:30:20.497Z,1013.93
2019-02-20T08:31:20.477Z,1013.96
2019-02-20T08:32:20.462Z,1013.98
2019-02-20T08:33:20.457Z,1013.95
2019-02-20T08:34:20.425Z,1013.94
2019-02-20T08:35:20.407Z,1013.95
2019-02-20T08:36:20.393Z,1013.96
2019-02-20T08:37:20.371Z,1013.96
2019-02-20T08:38:20.352Z,1013.93
2019-02-20T08:39:20.342Z,1013.96
2019-02-20T08:40:20.342Z,1013.97
2019-02-20T08:41:20.300Z,1013.96
2019-02-20T08:42:20.284Z,1013.97
2019-02-20T08:43:20.263Z,1014.02
2019-02-20T08:44:20.249Z,1014.02
2019-02-20T08:45:20.226Z,1014.01
2019-02-20T08:46:20.209Z,1014.01
2019-02-20T08:47:20.193Z,1014.04
2019-02-20T08:48:20.192Z,1014.04
2019-02-20T08:49:20.156Z,1014.03
2019-02-20T08:50:20.143Z,1014.03
2019-02-20T08:51:20.132Z,1014.03
2019-02-20T08:52:20.120Z,1014.02
2019-02-20T08:53:20.085Z,1014.04
2019-02-20T08:54:20.071Z,1014.04
2019-02-20T08:55:20.055Z,1014.01
2019-02-20T08:56:20.035Z,1014.05
2019-02-20T08:57:20.017Z,1014.06
2019-02-20T08:58:20.000Z,1014
2019-02-20T08:59:19.981Z,1014.12
2019-02-20T09:00:21.035Z,1014.07
2019-02-20T09:01:19.948Z,1014.05
2019-02-20T09:02:19.930Z,1014.04
2019-02-20T09:03:19.911Z,1014.06
2019-02-20T09:04:19.902Z,1014.07
2019-02-20T09:05:19.876Z,1014.05
2019-02-20T09:06:19.860Z,1014.01
2019-02-20T09:07:19.842Z,1014.02
2019-02-20T09:08:19.831Z,1014.07
2019-02-20T09:09:19.806Z,1014.08
2019-02-20T09:10:19.795Z,1014.06
2019-02-20T09:11:19.776Z,1014.09
2019-02-20T09:12:19.753Z,1014.06
2019-02-20T09:13:19.740Z,1014.07
2019-02-20T09:14:19.718Z,1014.08
2019-02-20T09:15:19.700Z,1014.08
2019-02-20T09:16:19.684Z,1014.09
2019-02-20T09:17:19.671Z,1014.1
2019-02-20T09:18:19.650Z,1014.11
2019-02-20T09:19:19.634Z,1014.13
2019-02-20T09:20:19.614Z,1014.17
2019-02-20T09:21:19.599Z,1014.11
2019-02-20T09:22:19.583Z,1014.18
2019-02-20T09:23:19.563Z,1014.18
2019-02-20T09:24:19.545Z,1014.17
2019-02-20T09:25:20.233Z,1014.15
2019-02-20T09:26:19.511Z,1014.2
2019-02-20T09:27:19.498Z,1014.19
2019-02-20T09:28:19.478Z,1014.17
2019-02-20T09:29:19.459Z,1014.16
2019-02-20T09:30:28.026Z,1014.16
2019-02-20T09:31:19.426Z,1014.21
2019-02-20T09:32:19.414Z,1014.21
2019-02-20T09:33:19.395Z,1014.17
2019-02-20T09:34:19.385Z,1014.22
2019-02-20T09:35:19.364Z,1014.21
2019-02-20T09:36:19.349Z,1014.21
2019-02-20T09:37:19.327Z,1014.23
2019-02-20T09:38:19.309Z,1014.19
2019-02-20T09:39:19.303Z,1014.24
2019-02-20T09:40:19.479Z,1014.21
2019-02-20T09:41:19.259Z,1014.23
2019-02-20T09:42:19.246Z,1014.2
2019-02-20T09:43:19.230Z,1014.2
2019-02-20T09:44:19.210Z,1014.22
2019-02-20T09:45:19.194Z,1014.19
2019-02-20T09:46:19.179Z,1014.22
2019-02-20T09:47:19.161Z,1014.23
2019-02-20T09:48:19.147Z,1014.22
2019-02-20T09:49:19.128Z,1014.22
2019-02-20T09:50:19.113Z,1014.2
2019-02-20T09:51:19.124Z,1014.26
2019-02-20T09:52:19.080Z,1014.26
2019-02-20T09:53:19.064Z,1014.23
2019-02-20T09:54:19.046Z,1014.26
2019-02-20T09:55:19.031Z,1014.27
2019-02-20T09:56:19.029Z,1014.26
2019-02-20T09:57:19.000Z,1014.27
2019-02-20T09:58:18.986Z,1014.27
2019-02-20T09:59:18.969Z,1014.24
2019-02-20T10:00:18.953Z,1014.24
2019-02-20T10:01:18.939Z,1014.26
2019-02-20T10:02:18.925Z,1014.3
2019-02-20T10:03:18.923Z,1014.25
2019-02-20T10:04:18.895Z,1014.29
2019-02-20T10:05:18.899Z,1014.35
2019-02-20T10:06:18.859Z,1014.31
2019-02-20T10:07:18.845Z,1014.32
2019-02-20T10:08:18.829Z,1014.33
2019-02-20T10:09:18.824Z,1014.35
2019-02-20T10:10:18.798Z,1014.38
2019-02-20T10:11:18.783Z,1014.32
2019-02-20T10:12:18.765Z,1014.33
2019-02-20T10:13:18.777Z,1014.37
2019-02-20T10:14:18.734Z,1014.37
2019-02-20T10:15:18.719Z,1014.35
2019-02-20T10:16:18.703Z,1014.39
2019-02-20T10:17:18.690Z,1014.42
2019-02-20T10:18:18.675Z,1014.36
2019-02-20T10:19:18.658Z,1014.38
2019-02-20T10:20:18.645Z,1014.38
2019-02-20T10:21:18.628Z,1014.42
2019-02-20T10:22:18.612Z,1014.42
2019-02-20T10:23:18.599Z,1014.43
2019-02-20T10:24:18.585Z,1014.45
2019-02-20T10:25:18.575Z,1014.42
2019-02-20T10:26:18.555Z,1014.4
2019-02-20T10:27:18.550Z,1014.42
2019-02-20T10:28:18.527Z,1014.41
2019-02-20T10:29:18.514Z,1014.45
2019-02-20T10:30:18.498Z,1014.45
2019-02-20T10:31:18.483Z,1014.53
2019-02-20T10:32:18.469Z,1014.44
2019-02-20T10:33:18.452Z,1014.45
2019-02-20T10:34:18.446Z,1014.43
2019-02-20T10:35:18.427Z,1014.45
2019-02-20T10:36:18.408Z,1014.51
2019-02-20T10:37:18.394Z,1014.46
2019-02-20T10:38:18.382Z,1014.52
2019-02-20T10:39:18.364Z,1014.5
2019-02-20T10:40:18.352Z,1014.51
2019-02-20T10:41:18.335Z,1014.59
2019-02-20T10:42:18.325Z,1014.56
2019-02-20T10:43:18.312Z,1014.56
2019-02-20T10:44:18.291Z,1014.61
2019-02-20T10:45:18.276Z,1014.6
2019-02-20T10:46:18.261Z,1014.59
2019-02-20T10:47:18.248Z,1014.61
2019-02-20T10:48:18.232Z,1014.6
2019-02-20T10:49:18.216Z,1014.6
2019-02-20T10:50:18.203Z,1014.58
2019-02-20T10:51:18.190Z,1014.61
2019-02-20T10:52:18.197Z,1014.64
2019-02-20T10:53:18.158Z,1014.61
2019-02-20T10:54:18.144Z,1014.64
2019-02-20T10:55:18.130Z,1014.64
2019-02-20T10:56:18.116Z,1014.66
2019-02-20T10:57:18.103Z,1014.65
2019-02-20T10:58:18.084Z,1014.65
2019-02-20T10:59:18.076Z,1014.66
2019-02-20T11:00:23.750Z,1014.62
2019-02-20T11:01:18.041Z,1014.62
2019-02-20T11:02:18.034Z,1014.65
2019-02-20T11:03:18.012Z,1014.63
2019-02-20T11:04:18.000Z,1014.61
2019-02-20T11:05:17.982Z,1014.62
2019-02-20T11:06:17.970Z,1014.64
2019-02-20T11:07:17.955Z,1014.62
2019-02-20T11:08:17.942Z,1014.62
2019-02-20T11:09:17.925Z,1014.66
2019-02-20T11:10:17.915Z,1014.63
2019-02-20T11:11:17.895Z,1014.69
2019-02-20T11:12:17.881Z,1014.7
2019-02-20T11:13:17.869Z,1014.66
2019-02-20T11:14:17.853Z,1014.74
2019-02-20T11:15:17.839Z,1014.7
2019-02-20T11:16:17.825Z,1014.69
2019-02-20T11:17:17.810Z,1014.71
2019-02-20T11:18:17.797Z,1014.72
2019-02-20T11:19:17.785Z,1014.72
2019-02-20T11:20:17.768Z,1014.71
2019-02-20T11:21:17.753Z,1014.73
2019-02-20T11:22:17.741Z,1014.71
2019-02-20T11:23:17.728Z,1014.68
2019-02-20T11:24:17.951Z,1014.65
2019-02-20T11:25:17.702Z,1014.64
2019-02-20T11:26:18.606Z,1014.64
2019-02-20T11:27:19.344Z,1014.67
2019-02-20T11:28:17.653Z,1014.62
2019-02-20T11:29:17.639Z,1014.68
2019-02-20T11:30:17.625Z,1014.62
2019-02-20T11:31:17.611Z,1014.68
2019-02-20T11:32:17.597Z,1014.66
2019-02-20T11:33:17.587Z,1014.65
2019-02-20T11:34:17.567Z,1014.6
2019-02-20T11:35:17.552Z,1014.65
2019-02-20T11:36:17.540Z,1014.63
2019-02-20T11:37:17.528Z,1014.63
2019-02-20T11:38:17.511Z,1014.62
2019-02-20T11:39:17.505Z,1014.65
2019-02-20T11:40:17.684Z,1014.59
2019-02-20T11:41:17.473Z,1014.66
2019-02-20T11:42:17.455Z,1014.6
2019-02-20T11:43:17.445Z,1014.64
2019-02-20T11:44:20.910Z,1014.63
2019-02-20T11:45:17.414Z,1014.66
2019-02-20T11:46:17.400Z,1014.64
2019-02-20T11:47:17.430Z,1014.59
2019-02-20T11:48:17.372Z,1014.61
2019-02-20T11:49:17.360Z,1014.63
2019-02-20T11:50:17.346Z,1014.62
2019-02-20T11:51:17.330Z,1014.62
2019-02-20T11:52:18.465Z,1014.65
2019-02-20T11:53:17.305Z,1014.64
2019-02-20T11:54:17.291Z,1014.64
2019-02-20T11:55:17.278Z,1014.65
2019-02-20T11:56:17.270Z,1014.65
2019-02-20T11:57:17.273Z,1014.7
2019-02-20T11:58:17.238Z,1014.71
2019-02-20T11:59:17.228Z,1014.68
2019-02-20T12:00:17.213Z,1014.66
2019-02-20T12:01:17.253Z,1014.66
2019-02-20T12:02:17.189Z,1014.68
2019-02-20T12:03:17.180Z,1014.66
2019-02-20T12:04:17.164Z,1014.63
2019-02-20T12:05:17.154Z,1014.61
2019-02-20T12:06:17.140Z,1014.62
2019-02-20T12:07:17.128Z,1014.62
2019-02-20T12:08:17.115Z,1014.6